sensor_id;sensor_type;location;lat;lon;timestamp;P1;durP1;ratioP1;P2;durP2;ratioP2
25984;SDS011;66753;53.848;10.658;2023-04-25T00:05:40;4.40;;;2.35;;
25984;SDS011;66753;53.848;10.658;2023-04-25T00:20:40;5.57;;;2.42;;
25984;SDS011;66753;53.848;10.658;2023-04-25T00:35:46;3.50;;;1.90;;
25984;SDS011;66753;53.848;10.658;2023-04-25T00:50:49;7.88;;;2.35;;
25984;SDS011;66753;53.848;10.658;2023-04-25T01:05:52;8.73;;;2.33;;
25984;SDS011;66753;53.848;10.658;2023-04-25T01:20:53;6.47;;;1.65;;
25984;SDS011;66753;53.848;10.658;2023-04-25T01:35:54;11.27;;;2.20;;
25984;SDS011;66753;53.848;10.658;2023-04-25T01:50:55;7.25;;;2.25;;
25984;SDS011;66753;53.848;10.658;2023-04-25T02:05:55;7.53;;;1.48;;
25984;SDS011;66753;53.848;10.658;2023-04-25T02:20:56;6.28;;;1.00;;
25984;SDS011;66753;53.848;10.658;2023-04-25T02:35:57;4.80;;;1.73;;
25984;SDS011;66753;53.848;10.658;2023-04-25T02:50:58;9.40;;;2.10;;
25984;SDS011;66753;53.848;10.658;2023-04-25T03:05:58;7.35;;;1.63;;
25984;SDS011;66753;53.848;10.658;2023-04-25T03:20:58;7.55;;;1.73;;
25984;SDS011;66753;53.848;10.658;2023-04-25T03:35:59;9.60;;;1.45;;
25984;SDS011;66753;53.848;10.658;2023-04-25T03:51:00;7.35;;;1.58;;
25984;SDS011;66753;53.848;10.658;2023-04-25T04:21:00;7.60;;;1.42;;
25984;SDS011;66753;53.848;10.658;2023-04-25T04:36:01;5.35;;;1.27;;
25984;SDS011;66753;53.848;10.658;2023-04-25T04:51:02;11.63;;;1.93;;
25984;SDS011;66753;53.848;10.658;2023-04-25T05:06:03;8.48;;;1.88;;
25984;SDS011;66753;53.848;10.658;2023-04-25T05:21:03;7.68;;;1.38;;
25984;SDS011;66753;53.848;10.658;2023-04-25T05:36:04;6.35;;;1.60;;
25984;SDS011;66753;53.848;10.658;2023-04-25T05:51:05;8.47;;;1.53;;
25984;SDS011;66753;53.848;10.658;2023-04-25T06:06:06;7.05;;;1.67;;
25984;SDS011;66753;53.848;10.658;2023-04-25T06:21:06;6.53;;;1.58;;
25984;SDS011;66753;53.848;10.658;2023-04-25T06:36:07;5.60;;;1.23;;
25984;SDS011;66753;53.848;10.658;2023-04-25T06:51:07;5.13;;;1.30;;
25984;SDS011;66753;53.848;10.658;2023-04-25T07:06:08;4.97;;;1.20;;
25984;SDS011;66753;53.848;10.658;2023-04-25T07:21:08;4.05;;;1.05;;
25984;SDS011;66753;53.848;10.658;2023-04-25T07:36:08;3.63;;;0.82;;
25984;SDS011;66753;53.848;10.658;2023-04-25T07:51:09;3.63;;;1.02;;
25984;SDS011;66753;53.848;10.658;2023-04-25T08:06:09;5.40;;;0.80;;
25984;SDS011;66753;53.848;10.658;2023-04-25T08:21:10;2.78;;;0.80;;
25984;SDS011;66753;53.848;10.658;2023-04-25T08:36:11;5.90;;;0.90;;
25984;SDS011;66753;53.848;10.658;2023-04-25T08:51:15;5.38;;;1.20;;
25984;SDS011;66753;53.848;10.658;2023-04-25T09:06:21;3.47;;;0.90;;
25984;SDS011;66753;53.848;10.658;2023-04-25T09:21:23;5.60;;;1.17;;
25984;SDS011;66753;53.848;10.658;2023-04-25T09:36:25;4.07;;;0.90;;
25984;SDS011;66753;53.848;10.658;2023-04-25T09:51:26;4.63;;;1.10;;
25984;SDS011;66753;53.848;10.658;2023-04-25T10:06:27;2.80;;;1.03;;
25984;SDS011;66753;53.848;10.658;2023-04-25T10:21:29;5.67;;;1.30;;
25984;SDS011;66753;53.848;10.658;2023-04-25T10:36:32;4.70;;;0.50;;
25984;SDS011;66753;53.848;10.658;2023-04-25T10:51:34;3.80;;;1.00;;
25984;SDS011;66753;53.848;10.658;2023-04-25T11:07:00;4.23;;;0.80;;
25984;SDS011;66753;53.848;10.658;2023-04-25T11:22:02;5.87;;;0.90;;
25984;SDS011;66753;53.848;10.658;2023-04-25T11:37:04;4.40;;;0.57;;
25984;SDS011;66753;53.848;10.658;2023-04-25T11:52:06;2.67;;;0.50;;
25984;SDS011;66753;53.848;10.658;2023-04-25T12:07:09;3.37;;;0.63;;
25984;SDS011;66753;53.848;10.658;2023-04-25T12:22:28;1.40;;;0.33;;
25984;SDS011;66753;53.848;10.658;2023-04-25T12:37:28;3.03;;;0.60;;
25984;SDS011;66753;53.848;10.658;2023-04-25T12:52:28;2.20;;;0.35;;
25984;SDS011;66753;53.848;10.658;2023-04-25T13:07:29;2.70;;;0.40;;
25984;SDS011;66753;53.848;10.658;2023-04-25T13:22:30;2.22;;;0.40;;
25984;SDS011;66753;53.848;10.658;2023-04-25T13:37:30;3.80;;;0.80;;
25984;SDS011;66753;53.848;10.658;2023-04-25T13:52:32;3.03;;;0.80;;
25984;SDS011;66753;53.848;10.658;2023-04-25T14:07:33;4.78;;;0.85;;
25984;SDS011;66753;53.848;10.658;2023-04-25T14:22:35;3.03;;;0.57;;
25984;SDS011;66753;53.848;10.658;2023-04-25T14:37:35;5.53;;;0.90;;
25984;SDS011;66753;53.848;10.658;2023-04-25T14:52:35;4.65;;;0.88;;
25984;SDS011;66753;53.848;10.658;2023-04-25T15:07:37;5.47;;;1.07;;
25984;SDS011;66753;53.848;10.658;2023-04-25T15:22:39;1.80;;;0.50;;
25984;SDS011;66753;53.848;10.658;2023-04-25T15:37:41;1.57;;;0.40;;
25984;SDS011;66753;53.848;10.658;2023-04-25T15:52:41;5.35;;;0.70;;
25984;SDS011;66753;53.848;10.658;2023-04-25T16:07:43;1.87;;;0.53;;
25984;SDS011;66753;53.848;10.658;2023-04-25T16:22:44;3.50;;;0.63;;
25984;SDS011;66753;53.848;10.658;2023-04-25T16:37:46;0.90;;;0.40;;
25984;SDS011;66753;53.848;10.658;2023-04-25T16:52:48;2.40;;;0.43;;
25984;SDS011;66753;53.848;10.658;2023-04-25T17:07:49;3.77;;;0.70;;
25984;SDS011;66753;53.848;10.658;2023-04-25T17:22:49;6.75;;;1.15;;
25984;SDS011;66753;53.848;10.658;2023-04-25T17:37:51;4.33;;;0.70;;
25984;SDS011;66753;53.848;10.658;2023-04-25T17:52:51;2.13;;;0.73;;
25984;SDS011;66753;53.848;10.658;2023-04-25T18:07:52;3.17;;;0.47;;
25984;SDS011;66753;53.848;10.658;2023-04-25T18:22:52;5.05;;;0.60;;
25984;SDS011;66753;53.848;10.658;2023-04-25T18:37:53;5.95;;;0.50;;
25984;SDS011;66753;53.848;10.658;2023-04-25T18:52:53;2.63;;;0.68;;
25984;SDS011;66753;53.848;10.658;2023-04-25T19:07:54;5.45;;;1.02;;
25984;SDS011;66753;53.848;10.658;2023-04-25T19:22:54;4.25;;;0.98;;
25984;SDS011;66753;53.848;10.658;2023-04-25T19:37:55;3.60;;;0.77;;
25984;SDS011;66753;53.848;10.658;2023-04-25T19:52:56;4.30;;;0.63;;
25984;SDS011;66753;53.848;10.658;2023-04-25T20:07:56;4.57;;;0.77;;
25984;SDS011;66753;53.848;10.658;2023-04-25T20:37:57;2.35;;;0.45;;
25984;SDS011;66753;53.848;10.658;2023-04-25T20:52:58;3.25;;;0.60;;
25984;SDS011;66753;53.848;10.658;2023-04-25T21:07:58;1.90;;;0.40;;
25984;SDS011;66753;53.848;10.658;2023-04-25T21:22:59;2.75;;;0.68;;
25984;SDS011;66753;53.848;10.658;2023-04-25T21:37:59;4.43;;;0.90;;
25984;SDS011;66753;53.848;10.658;2023-04-25T21:53:00;6.43;;;0.90;;
25984;SDS011;66753;53.848;10.658;2023-04-25T22:08:00;2.78;;;0.75;;
25984;SDS011;66753;53.848;10.658;2023-04-25T22:23:02;3.43;;;0.73;;
25984;SDS011;66753;53.848;10.658;2023-04-25T22:38:03;4.70;;;0.63;;
25984;SDS011;66753;53.848;10.658;2023-04-25T22:53:03;4.55;;;0.45;;
25984;SDS011;66753;53.848;10.658;2023-04-25T23:08:04;5.47;;;0.50;;
25984;SDS011;66753;53.848;10.658;2023-04-25T23:23:05;3.23;;;0.80;;
25984;SDS011;66753;53.848;10.658;2023-04-25T23:38:06;3.80;;;0.60;;
25984;SDS011;66753;53.848;10.658;2023-04-25T23:53:07;3.55;;;1.10;;
